Time;durP1;ratioP1;P1;durP2;ratioP2;P2;SDS_P1;SDS_P2;PMS_P1;PMS_P2;Temp;Humidity;BMP_temperature;BMP_pressure;BME280_temperature;BME280_humidity;BME280_pressure;Samples;Min_cycle;Max_cycle;Signal;HPM_P1;HPM_P2
2022/03/27 00:00:43;;;;;;;3.20;0.80;;;;;;;0.42;56.64;97727.50;4859293;29;20135;-83
2022/03/27 00:03:10;;;;;;;0.80;0.70;;;;;;;0.35;57.78;97707.00;4881754;29;20052;-80
2022/03/27 00:05:36;;;;;;;2.30;0.80;;;;;;;0.28;58.04;97717.28;4865207;29;20048;-81
2022/03/27 00:08:02;;;;;;;1.10;0.80;;;;;;;0.31;57.64;97718.13;4851206;29;20131;-81
2022/03/27 00:10:28;;;;;;;2.60;0.68;;;;;;;0.12;58.11;97692.53;4857323;29;20041;-80
2022/03/27 00:12:54;;;;;;;0.60;0.60;;;;;;;0.25;58.52;97726.63;4880742;29;20548;-81
2022/03/27 00:15:20;;;;;;;0.98;0.60;;;;;;;0.18;58.55;97720.66;4858608;29;20136;-82
2022/03/27 00:17:46;;;;;;;0.88;0.60;;;;;;;0.12;58.06;97723.22;4864018;29;20048;-81
2022/03/27 00:20:15;;;;;;;0.85;0.55;;;;;;;0.08;59.09;97719.00;4873346;29;20037;-80
2022/03/27 00:22:41;;;;;;;0.57;0.50;;;;;;;-0.20;58.63;97670.38;4877169;29;20059;-78
2022/03/27 00:25:07;;;;;;;0.80;0.60;;;;;;;-0.13;58.47;97700.22;4875507;29;20044;-82
2022/03/27 00:27:34;;;;;;;0.93;0.60;;;;;;;-0.04;58.79;97720.66;4873499;29;20037;-81
2022/03/27 00:30:02;;;;;;;1.45;0.80;;;;;;;-0.19;58.79;97690.81;4874197;29;20096;-80
2022/03/27 00:32:29;;;;;;;0.90;0.68;;;;;;;0.03;59.27;97720.69;4860996;29;20045;-81
2022/03/27 00:34:55;;;;;;;1.60;0.68;;;;;;;-0.07;58.75;97700.22;4895804;29;20037;-82
2022/03/27 00:37:22;;;;;;;1.90;0.47;;;;;;;0.10;58.76;97727.50;4862913;29;20103;-79
2022/03/27 00:39:48;;;;;;;0.57;0.57;;;;;;;-0.01;58.84;97709.63;4895474;29;20139;-82
2022/03/27 00:42:14;;;;;;;0.93;0.60;;;;;;;-0.03;59.23;97712.16;4886464;29;20041;-83
2022/03/27 00:44:40;;;;;;;0.75;0.50;;;;;;;-0.11;58.78;97690.81;4883005;29;20138;-79
2022/03/27 00:47:07;;;;;;;0.60;0.50;;;;;;;0.11;58.94;97696.81;4881336;29;20060;-82
2022/03/27 00:49:34;;;;;;;2.33;0.70;;;;;;;0.23;58.28;97730.91;4863804;29;20053;-80
2022/03/27 00:52:01;;;;;;;0.98;0.50;;;;;;;-0.06;58.42;97673.78;4866714;29;20186;-81
2022/03/27 00:54:27;;;;;;;1.02;0.63;;;;;;;-0.01;58.73;97690.00;4889388;29;20659;-80
2022/03/27 00:56:53;;;;;;;0.80;0.60;;;;;;;0.12;57.90;97718.09;4869175;29;20223;-78
2022/03/27 00:59:19;;;;;;;0.57;0.57;;;;;;;0.15;58.46;97730.91;4870811;29;20215;-82
2022/03/27 01:01:45;;;;;;;0.70;0.60;;;;;;;0.14;58.78;97727.50;4860282;29;20450;-81
2022/03/27 01:04:11;;;;;;;4.00;0.50;;;;;;;0.11;58.57;97731.78;4867935;29;20064;-79
2022/03/27 01:06:43;;;;;;;0.70;0.50;;;;;;;0.04;58.46;97723.22;4869835;29;20048;-82
2022/03/27 01:12:06;;;;;;;0.75;0.60;;;;;;;-0.11;58.07;97713.84;4872626;29;20041;-82
2022/03/27 01:14:33;;;;;;;0.43;0.43;;;;;;;-0.04;57.91;97718.13;4860108;29;20051;-80
2022/03/27 01:17:08;;;;;;;1.38;0.60;;;;;;;-0.12;57.69;97717.28;4873111;29;20097;-82
2022/03/27 01:19:38;;;;;;;2.90;0.60;;;;;;;-0.05;58.18;97723.25;4887428;29;20040;-82
2022/03/27 01:22:04;;;;;;;1.08;0.50;;;;;;;-0.31;57.90;97685.72;4862461;29;20040;-82
2022/03/27 01:24:30;;;;;;;0.43;0.43;;;;;;;-0.11;57.75;97720.69;4876947;29;20543;-79
2022/03/27 01:26:56;;;;;;;1.42;0.70;;;;;;;-0.19;58.50;97724.06;4878902;29;20048;-82
2022/03/27 01:29:22;;;;;;;0.60;0.52;;;;;;;-0.08;58.34;97744.53;4894151;29;20045;-81
2022/03/27 01:31:51;;;;;;;1.35;0.70;;;;;;;-0.21;58.60;97709.59;4874377;29;20635;-79
2022/03/27 01:34:18;;;;;;;0.63;0.50;;;;;;;0.12;58.57;97756.47;4870833;29;20430;-82
2022/03/27 01:36:44;;;;;;;1.48;0.50;;;;;;;-0.06;58.11;97719.81;4866193;29;20409;-81
2022/03/27 01:39:13;;;;;;;1.17;0.70;;;;;;;0.12;58.71;97746.25;4869715;29;20072;-81
2022/03/27 01:41:40;;;;;;;0.60;0.50;;;;;;;0.14;58.21;97750.53;4865940;29;20537;-79
2022/03/27 01:44:09;;;;;;;1.17;0.50;;;;;;;0.19;58.50;97777.81;4856205;29;21868;-81
2022/03/27 01:46:37;;;;;;;0.63;0.63;;;;;;;-0.09;58.62;97742.00;4869391;29;20520;-81
2022/03/27 01:49:07;;;;;;;1.42;0.68;;;;;;;0.09;58.99;97761.63;4870081;29;20505;-80
2022/03/27 01:51:34;;;;;;;0.30;0.30;;;;;;;0.12;58.42;97761.59;4877024;29;20144;-84
2022/03/27 01:54:00;;;;;;;1.80;0.50;;;;;;;-0.07;58.89;97738.56;4868000;29;20143;-79
2022/03/27 01:56:26;;;;;;;1.27;0.55;;;;;;;-0.20;58.49;97709.56;4864939;29;20052;-83
2022/03/27 01:58:53;;;;;;;0.85;0.50;;;;;;;-0.12;59.08;97740.28;4860003;29;20396;-79
2022/03/27 02:01:19;;;;;;;4.97;0.63;;;;;;;-0.08;58.20;97749.66;4871484;29;20509;-81
2022/03/27 02:03:50;;;;;;;0.60;0.57;;;;;;;-0.05;58.61;97772.66;4856287;29;20060;-83
2022/03/27 02:06:16;;;;;;;0.90;0.60;;;;;;;0.04;59.38;97779.50;4865479;29;20045;-81
2022/03/27 02:08:43;;;;;;;0.40;0.40;;;;;;;-0.15;58.79;97747.94;4869603;29;20703;-82
2022/03/27 02:11:09;;;;;;;2.42;0.60;;;;;;;-0.06;58.28;97763.28;4855440;29;20557;-78
2022/03/27 02:13:36;;;;;;;0.80;0.52;;;;;;;-0.04;58.96;97771.81;4883286;29;20532;-79
2022/03/27 02:16:03;;;;;;;1.45;0.50;;;;;;;-0.23;58.91;97764.97;4859852;29;20040;-80
2022/03/27 02:18:31;;;;;;;3.67;0.60;;;;;;;-0.27;59.07;97769.25;4866017;29;20087;-81
2022/03/27 02:21:00;;;;;;;0.60;0.45;;;;;;;-0.32;58.55;97770.91;4861456;29;20076;-81
2022/03/27 02:23:27;;;;;;;0.93;0.60;;;;;;;-0.17;58.81;97798.22;4882054;29;20354;-83
2022/03/27 02:25:54;;;;;;;1.17;0.52;;;;;;;-0.13;58.83;97805.06;4881740;29;20044;-79
2022/03/27 02:28:20;;;;;;;0.52;0.35;;;;;;;-0.35;59.18;97760.69;4860128;29;20472;-79
2022/03/27 02:30:48;;;;;;;1.92;0.50;;;;;;;-0.13;58.71;97794.84;4872204;29;20430;-80
2022/03/27 02:33:14;;;;;;;0.73;0.40;;;;;;;-0.43;58.45;97776.00;4856733;29;20402;-79
2022/03/27 02:35:41;;;;;;;0.70;0.45;;;;;;;-0.44;59.04;97783.69;4866840;29;20131;-81
2022/03/27 02:38:07;;;;;;;0.80;0.40;;;;;;;-0.44;58.71;97779.41;4881341;29;20124;-80
2022/03/27 02:40:37;;;;;;;1.70;0.50;;;;;;;-0.42;59.33;97790.50;4881760;29;20087;-81
2022/03/27 02:43:04;;;;;;;1.55;0.88;;;;;;;-0.26;58.66;97822.06;4869262;29;20043;-80
2022/03/27 02:45:30;;;;;;;0.85;0.45;;;;;;;-0.41;59.05;97810.09;4867909;29;20513;-80
2022/03/27 02:47:57;;;;;;;0.82;0.60;;;;;;;-0.53;59.01;97782.78;4872097;29;20045;-80
2022/03/27 02:50:24;;;;;;;0.63;0.43;;;;;;;-0.32;58.73;97812.66;4881553;29;20386;-83
2022/03/27 02:52:51;;;;;;;1.95;0.60;;;;;;;-0.56;58.79;97807.50;4858441;29;20465;-79
2022/03/27 02:55:18;;;;;;;0.63;0.40;;;;;;;-0.51;59.40;97829.66;4858729;29;20051;-80
2022/03/27 02:57:44;;;;;;;0.50;0.43;;;;;;;-0.53;59.49;97833.03;4865325;29;20091;-80
2022/03/27 03:00:10;;;;;;;0.80;0.40;;;;;;;-0.57;60.18;97842.41;4880019;29;20041;-84
2022/03/27 03:02:37;;;;;;;0.70;0.40;;;;;;;-0.63;60.00;97824.47;4865234;29;20553;-83
2022/03/27 03:05:04;;;;;;;0.50;0.40;;;;;;;-0.77;59.87;97801.41;4856025;29;20048;-84
2022/03/27 03:07:33;;;;;;;1.70;0.40;;;;;;;-0.79;60.25;97801.41;4860395;29;20170;-82
2022/03/27 03:10:00;;;;;;;1.25;0.50;;;;;;;-0.86;59.61;97807.34;4872179;29;20051;-82
2022/03/27 03:12:27;;;;;;;1.02;0.52;;;;;;;-0.70;60.49;97833.81;4884497;29;20087;-82
2022/03/27 03:14:55;;;;;;;2.15;0.40;;;;;;;-0.65;60.48;97855.13;4869289;29;20041;-81
2022/03/27 03:17:22;;;;;;;1.15;0.55;;;;;;;-0.87;60.95;97812.44;4871378;29;20036;-78
2022/03/27 03:19:48;;;;;;;0.88;0.43;;;;;;;-0.83;60.65;97844.81;4867941;29;20148;-82
2022/03/27 03:22:15;;;;;;;0.65;0.32;;;;;;;-0.72;60.23;97852.56;4881593;29;20044;-80
2022/03/27 03:24:41;;;;;;;0.77;0.52;;;;;;;-0.73;60.62;97867.00;4881547;29;20543;-81
2022/03/27 03:27:07;;;;;;;1.75;0.77;;;;;;;-0.72;60.60;97868.72;4858655;29;21438;-80
2022/03/27 03:29:33;;;;;;;1.45;0.60;;;;;;;-0.89;60.63;97849.91;4879250;29;20057;-81
2022/03/27 03:31:59;;;;;;;1.60;1.08;;;;;;;-0.89;60.81;97843.09;4868412;29;20100;-84
2022/03/27 03:34:25;;;;;;;1.50;0.60;;;;;;;-0.86;60.38;97849.91;4869369;29;20548;-82
2022/03/27 03:36:51;;;;;;;1.65;0.63;;;;;;;-0.68;60.76;97875.56;4868389;29;20048;-80
2022/03/27 03:39:17;;;;;;;3.20;0.90;;;;;;;-0.66;60.22;97896.88;4881945;29;20051;-82
2022/03/27 03:41:43;;;;;;;1.77;0.70;;;;;;;-0.76;60.76;97902.75;4888184;29;20037;-82
2022/03/27 03:44:10;;;;;;;0.73;0.65;;;;;;;-0.71;60.84;97905.34;4894996;29;20040;-82
2022/03/27 03:46:36;;;;;;;1.00;0.60;;;;;;;-0.68;60.73;97913.03;4870397;29;20069;-81
2022/03/27 03:49:06;;;;;;;1.35;0.77;;;;;;;-1.25;60.57;97816.47;4891965;29;20036;-78
2022/03/27 03:51:36;;;;;;;1.25;0.70;;;;;;;-0.93;60.43;97880.50;4891182;29;20037;-80
2022/03/27 03:54:06;;;;;;;1.48;0.70;;;;;;;-0.74;60.51;97906.16;4868181;29;20428;-77
2022/03/27 03:56:34;;;;;;;2.45;0.93;;;;;;;-0.77;60.27;97906.16;4875039;29;20044;-80
2022/03/27 03:58:59;;;;;;;1.15;0.75;;;;;;;-0.63;60.16;97927.53;4887112;29;20509;-81
2022/03/27 04:01:25;;;;;;;1.13;0.70;;;;;;;-0.80;60.21;97908.72;4877060;29;20041;-82
2022/03/27 04:03:51;;;;;;;1.15;0.70;;;;;;;-0.62;59.54;97936.91;4867158;29;20057;-78
2022/03/27 04:06:18;;;;;;;1.77;0.88;;;;;;;-0.64;60.19;97927.50;4858474;29;20073;-79
2022/03/27 04:08:44;;;;;;;1.95;0.90;;;;;;;-0.69;60.14;97934.31;4873691;29;20045;-79
2022/03/27 04:11:16;;;;;;;2.72;0.70;;;;;;;-0.76;60.00;97925.72;4884127;29;20069;-80
2022/03/27 04:13:46;;;;;;;1.20;0.63;;;;;;;-0.77;60.24;97936.78;4888632;29;20059;-83
2022/03/27 04:16:13;;;;;;;1.40;0.70;;;;;;;-0.86;60.21;97927.38;4876386;29;20045;-81
2022/03/27 04:18:39;;;;;;;0.60;0.40;;;;;;;-0.74;59.49;97956.41;4867921;29;20044;-80
2022/03/27 04:21:06;;;;;;;2.80;1.02;;;;;;;-0.81;59.61;97968.28;4876620;29;20068;-82
2022/03/27 04:23:36;;;;;;;1.45;0.60;;;;;;;-0.87;59.60;97961.41;4869007;29;20045;-81
2022/03/27 04:28:54;;;;;;;1.02;0.50;;;;;;;-0.71;58.88;97982.00;4878730;29;20037;-79
2022/03/27 04:31:20;;;;;;;1.52;0.77;;;;;;;-0.83;59.26;97947.00;4867035;29;20055;-80
2022/03/27 04:33:46;;;;;;;0.80;0.40;;;;;;;-0.66;58.55;97991.38;4886259;29;20053;-80
2022/03/27 04:36:12;;;;;;;1.33;0.57;;;;;;;-0.75;58.50;97970.88;4873241;29;20055;-82
2022/03/27 04:38:38;;;;;;;1.50;0.60;;;;;;;-0.58;58.07;98004.22;4870764;29;20053;-80
2022/03/27 04:41:04;;;;;;;4.22;0.60;;;;;;;-0.58;58.31;97993.16;4865331;29;20071;-81
2022/03/27 04:43:32;;;;;;;0.65;0.40;;;;;;;-1.02;57.79;97916.22;4869249;29;20057;-81
2022/03/27 04:45:59;;;;;;;0.60;0.43;;;;;;;-0.58;57.85;98008.47;4855713;29;20040;-82
2022/03/27 04:48:25;;;;;;;2.30;0.40;;;;;;;-0.56;57.44;98024.69;4873488;29;20505;-81
2022/03/27 04:50:53;;;;;;;1.30;0.45;;;;;;;-0.53;57.59;98029.78;4863026;29;20045;-81
2022/03/27 04:53:28;;;;;;;0.82;0.52;;;;;;;-0.47;57.94;98057.97;4873158;29;20136;-80
2022/03/27 04:55:54;;;;;;;2.38;0.57;;;;;;;-0.44;56.81;98063.09;4870575;29;20044;-80
2022/03/27 04:58:20;;;;;;;0.75;0.60;;;;;;;-0.44;57.40;98065.66;4869166;29;20069;-79
2022/03/27 05:00:47;;;;;;;1.33;0.50;;;;;;;-0.66;57.45;98033.97;4872877;29;21010;-82
2022/03/27 05:03:13;;;;;;;1.67;0.50;;;;;;;-1.33;57.57;97915.97;4868346;29;20057;-81
2022/03/27 05:05:43;;;;;;;1.95;0.80;;;;;;;-0.71;57.35;98079.06;4901543;29;20057;-80
2022/03/27 05:08:15;;;;;;;4.95;0.60;;;;;;;-1.17;57.46;97990.97;4895319;29;20040;-80
2022/03/27 05:10:41;;;;;;;;;;;;;;;-0.81;57.39;98081.53;4881389;29;20069;-80
2022/03/27 05:13:08;;;;;;;0.63;0.50;;;;;;;-0.95;57.60;98071.19;4883776;29;19927;-81
2022/03/27 05:15:34;;;;;;;5.88;0.82;;;;;;;-1.16;57.89;98030.13;4874805;29;20045;-77
2022/03/27 05:18:01;;;;;;;1.65;0.73;;;;;;;-0.82;57.89;98081.53;4873618;29;20424;-81
2022/03/27 05:20:29;;;;;;;2.20;0.65;;;;;;;-0.85;57.79;98082.34;4885818;29;20081;-81
2022/03/27 05:23:01;;;;;;;1.08;0.30;;;;;;;-1.31;57.51;98026.56;4868875;29;20458;-80
2022/03/27 05:26:02;;;;;;;5.63;0.70;;;;;;;-0.87;57.60;98116.38;4856499;29;20164;-84
2022/03/27 05:28:28;;;;;;;1.77;0.82;;;;;;;-0.84;57.46;98108.75;4875874;29;20048;-81
2022/03/27 05:30:56;;;;;;;3.45;0.50;;;;;;;-0.94;57.44;98082.25;4866987;29;20040;-79
2022/03/27 05:33:23;;;;;;;1.52;0.70;;;;;;;-0.54;56.90;98120.06;4886161;29;20044;-81
2022/03/27 05:35:54;;;;;;;2.55;0.70;;;;;;;-0.71;57.03;98063.75;4874170;29;20048;-82
2022/03/27 05:38:20;;;;;;;1.00;0.80;;;;;;;-0.52;56.66;98085.16;4873824;29;20060;-81
2022/03/27 05:40:47;;;;;;;0.60;0.40;;;;;;;-0.37;56.37;98095.53;4864852;29;20056;-81
2022/03/27 05:43:15;;;;;;;0.93;0.50;;;;;;;0.17;56.84;98115.50;4878224;29;20076;-79
2022/03/27 05:45:43;;;;;;;0.70;0.40;;;;;;;0.46;56.25;98119.91;4893275;29;20068;-80
2022/03/27 05:48:12;;;;;;;3.75;0.40;;;;;;;0.31;55.99;98061.00;4866662;29;20478;-79
2022/03/27 05:50:38;;;;;;;1.30;0.60;;;;;;;0.78;55.00;98132.00;4867874;29;20088;-79
2022/03/27 05:53:05;;;;;;;2.05;0.80;;;;;;;0.80;54.48;98114.94;4876045;29;20044;-80
2022/03/27 05:55:34;;;;;;;0.68;0.40;;;;;;;0.10;53.24;97985.88;4872946;29;20048;-78
2022/03/27 05:58:00;;;;;;;0.65;0.50;;;;;;;0.57;52.11;98104.59;4880459;29;20072;-83
2022/03/27 06:00:27;;;;;;;1.63;0.60;;;;;;;0.56;52.93;98125.94;4869481;29;20408;-80
2022/03/27 06:02:53;;;;;;;1.73;0.68;;;;;;;0.02;52.03;98024.16;4881035;29;20069;-80
2022/03/27 06:05:23;;;;;;;1.38;0.60;;;;;;;0.05;52.17;98018.22;4887161;29;20048;-79
2022/03/27 06:07:55;;;;;;;0.80;0.30;;;;;;;-0.01;51.17;97963.63;4889970;29;20051;-79
2022/03/27 06:10:23;;;;;;;;;;;;;;;1.46;51.38;98173.19;4891727;29;20069;-79
2022/03/27 06:12:53;;;;;;;0.85;0.50;;;;;;;1.11;51.25;98086.84;4874733;29;19927;-81
2022/03/27 06:15:21;;;;;;;2.42;0.40;;;;;;;1.52;49.86;98050.97;4873159;29;20048;-82
2022/03/27 06:17:49;;;;;;;0.93;0.63;;;;;;;2.22;49.74;98006.34;4865023;29;20083;-81
2022/03/27 06:20:17;;;;;;;1.42;0.73;;;;;;;3.95;47.55;98123.50;4883517;29;20037;-79
2022/03/27 06:22:44;;;;;;;2.30;0.70;;;;;;;3.19;46.66;98011.81;4870091;29;20108;-79
2022/03/27 06:25:13;;;;;;;1.52;0.70;;;;;;;3.57;45.80;98118.66;4887078;29;20044;-78
2022/03/27 06:27:39;;;;;;;0.88;0.68;;;;;;;2.67;45.28;98026.72;4877871;29;20067;-78
2022/03/27 06:30:11;;;;;;;2.65;0.70;;;;;;;3.24;45.08;98226.00;4889866;29;20084;-78
2022/03/27 06:32:38;;;;;;;;;;;;;;;2.88;44.71;98212.44;4865570;29;20052;-80
2022/03/27 06:35:05;;;;;;;2.22;0.70;;;;;;;1.76;45.32;98114.25;4893218;29;19978;-78
2022/03/27 06:37:32;;;;;;;3.33;0.88;;;;;;;2.04;46.18;98225.41;4890465;29;20048;-83
2022/03/27 06:40:02;;;;;;;1.02;0.68;;;;;;;1.74;46.94;98215.97;4882882;29;20042;-82
2022/03/27 06:42:34;;;;;;;5.38;1.00;;;;;;;0.62;46.84;98105.50;4880030;29;20064;-79
2022/03/27 06:45:00;;;;;;;4.38;0.70;;;;;;;0.67;48.13;98154.16;4880945;29;20060;-78
2022/03/27 06:47:29;;;;;;;2.95;1.45;;;;;;;0.47;48.81;98123.31;4880646;29;20024;-80
2022/03/27 06:50:01;;;;;;;1.33;0.70;;;;;;;0.34;49.41;98127.50;4883649;29;20045;-79
2022/03/27 06:52:30;;;;;;;2.53;1.10;;;;;;;0.60;50.08;98132.78;4888762;29;20040;-79
2022/03/27 06:55:02;;;;;;;1.52;0.75;;;;;;;1.31;49.68;98198.78;4868801;29;20068;-78
2022/03/27 06:57:29;;;;;;;2.72;0.82;;;;;;;0.74;49.58;98136.25;4894101;29;20052;-79
2022/03/27 07:05:24;;;;;;;1.52;0.50;;;;;;;1.90;49.29;98234.78;4904162;29;20102;-81
2022/03/27 07:07:51;;;;;;;2.72;0.70;;;;;;;1.89;48.76;98253.59;4881312;29;20060;-79
2022/03/27 07:10:17;;;;;;;1.40;0.70;;;;;;;2.17;48.05;98251.06;4904730;29;20045;-78
2022/03/27 07:12:44;;;;;;;1.70;0.50;;;;;;;1.85;48.07;98268.13;4881094;29;20083;-81
2022/03/27 07:15:10;;;;;;;2.25;0.60;;;;;;;1.37;46.75;98272.28;4893029;29;20044;-81
2022/03/27 07:17:45;;;;;;;3.17;0.70;;;;;;;0.48;47.69;98223.16;4898330;29;20036;-81
2022/03/27 07:20:12;;;;;;;3.85;0.75;;;;;;;0.05;47.37;98187.06;4910714;29;20037;-78
2022/03/27 07:22:41;;;;;;;2.50;0.70;;;;;;;0.04;47.55;98193.00;4876532;29;20044;-80
2022/03/27 07:25:09;;;;;;;1.45;0.60;;;;;;;0.12;47.08;98181.09;4875953;29;20050;-79
2022/03/27 07:27:37;;;;;;;1.08;0.75;;;;;;;0.20;46.89;98173.50;4910053;29;20037;-82
2022/03/27 07:30:06;;;;;;;2.58;0.80;;;;;;;0.97;46.30;98247.34;4893129;29;20112;-79
2022/03/27 07:32:33;;;;;;;0.77;0.73;;;;;;;0.34;45.18;98122.41;4874895;29;20049;-82
2022/03/27 07:35:02;;;;;;;0.85;0.70;;;;;;;0.77;44.50;98203.69;4885325;29;20040;-79
2022/03/27 07:37:32;;;;;;;1.40;1.13;;;;;;;1.13;44.42;98267.06;4904319;29;20070;-81
2022/03/27 07:40:03;;;;;;;1.80;0.70;;;;;;;1.37;44.45;98285.09;4883088;29;20040;-78
2022/03/27 07:42:59;;;;;;;1.20;0.60;;;;;;;1.16;43.91;98255.97;4899847;29;20036;-82
2022/03/27 07:45:31;;;;;;;1.45;0.75;;;;;;;1.04;43.97;98239.69;4884468;29;20052;-81
2022/03/27 07:48:01;;;;;;;1.45;0.80;;;;;;;1.46;42.78;98305.66;4897397;29;20044;-81
2022/03/27 07:50:30;;;;;;;2.28;0.90;;;;;;;1.12;43.07;98244.84;4853690;29;20508;-82
2022/03/27 07:53:14;;;;;;;3.60;0.85;;;;;;;1.75;43.23;98357.03;4893617;29;20086;-81
2022/03/27 07:55:40;;;;;;;1.08;0.90;;;;;;;1.08;42.92;98219.22;4866838;29;20056;-78
2022/03/27 07:58:06;;;;;;;1.27;0.60;;;;;;;1.15;42.26;98272.19;4902660;29;20051;-79
2022/03/27 08:00:33;;;;;;;3.40;1.23;;;;;;;1.43;42.67;98306.50;4885334;29;20036;-80
2022/03/27 08:02:59;;;;;;;2.67;1.25;;;;;;;1.02;42.68;98223.47;4892187;29;20060;-82
2022/03/27 08:05:44;;;;;;;1.67;0.80;;;;;;;0.63;41.79;98196.81;4870915;29;20051;-80
2022/03/27 08:08:17;;;;;;;3.03;0.90;;;;;;;1.46;42.39;98365.47;4879026;29;20024;-79
2022/03/27 08:10:50;;;;;;;2.00;0.80;;;;;;;1.03;41.84;98281.53;4860384;29;20108;-79
2022/03/27 08:13:17;;;;;;;1.73;0.70;;;;;;;0.71;42.31;98207.09;4884636;29;20044;-80
2022/03/27 08:15:43;;;;;;;1.88;1.13;;;;;;;1.60;42.03;98362.97;4904639;29;20076;-82
2022/03/27 08:18:24;;;;;;;5.53;1.13;;;;;;;1.56;41.05;98419.34;4906095;29;20069;-82
2022/03/27 08:21:11;;;;;;;6.35;0.93;;;;;;;0.97;41.90;98367.75;4903653;29;20076;-81
2022/03/27 08:23:44;;;;;;;1.20;0.80;;;;;;;0.59;42.21;98274.44;4869267;29;20066;-80
2022/03/27 08:28:56;;;;;;;2.17;0.90;;;;;;;1.35;42.03;98315.84;4911593;29;20040;-80
2022/03/27 08:31:25;;;;;;;3.95;0.73;;;;;;;1.26;41.22;98272.22;4869875;29;20051;-80
2022/03/27 08:33:57;;;;;;;2.38;0.70;;;;;;;1.71;40.10;98306.56;4890081;29;20044;-81
2022/03/27 08:36:27;;;;;;;2.47;1.13;;;;;;;2.05;40.55;98391.34;4889461;29;20117;-83
2022/03/27 08:39:16;;;;;;;1.85;0.70;;;;;;;1.95;40.23;98428.09;4903180;29;20036;-81
2022/03/27 08:42:28;;;;;;;1.73;0.60;;;;;;;1.83;40.66;98469.09;4889275;29;20506;-81
2022/03/27 08:45:41;;;;;;;3.97;0.73;;;;;;;1.26;40.02;98390.13;4852482;29;20064;-82
2022/03/27 08:48:43;;;;;;;1.55;0.82;;;;;;;1.03;40.81;98334.47;4882521;29;20055;-83
2022/03/27 08:52:01;;;;;;;2.80;0.90;;;;;;;1.92;41.27;98464.84;4887626;29;20051;-79
2022/03/27 08:54:43;;;;;;;2.72;1.00;;;;;;;1.02;40.73;98335.31;4905124;29;20272;-82
2022/03/27 08:57:59;;;;;;;1.05;0.88;;;;;;;0.62;41.11;98306.88;4901930;29;20037;-81
2022/03/27 09:00:30;;;;;;;5.93;3.22;;;;;;;1.19;40.94;98379.84;4842890;29;20148;-79
2022/03/27 09:03:25;;;;;;;1.40;0.85;;;;;;;0.94;41.22;98311.38;4896449;29;20151;-82
2022/03/27 09:06:08;;;;;;;2.70;0.90;;;;;;;1.65;40.39;98368.13;4862934;29;20048;-82
2022/03/27 09:08:38;;;;;;;1.02;0.90;;;;;;;1.74;40.44;98323.69;4888893;29;20060;-78
2022/03/27 09:11:06;;;;;;;1.23;0.93;;;;;;;2.70;39.79;98471.09;4887917;29;20049;-79
2022/03/27 09:13:36;;;;;;;4.75;1.08;;;;;;;2.07;39.37;98402.47;4892898;29;20048;-82
2022/03/27 09:16:11;;;;;;;3.83;1.20;;;;;;;2.40;39.90;98500.13;4896070;29;20052;-82
2022/03/27 09:19:01;;;;;;;2.25;0.90;;;;;;;2.13;38.65;98493.16;4882146;29;20041;-82
2022/03/27 09:21:30;;;;;;;1.10;0.63;;;;;;;1.43;39.93;98434.69;4897179;29;20052;-81
2022/03/27 09:24:03;;;;;;;3.00;0.80;;;;;;;1.13;40.00;98389.19;4895722;29;20425;-80
2022/03/27 09:26:32;;;;;;;1.42;0.90;;;;;;;2.01;40.50;98447.78;4880292;29;20043;-79
2022/03/27 09:29:10;;;;;;;1.48;0.80;;;;;;;2.64;39.81;98526.75;4892741;29;20060;-80
2022/03/27 09:31:38;;;;;;;1.65;0.70;;;;;;;2.93;38.50;98506.25;4898394;29;20049;-81
2022/03/27 09:34:08;;;;;;;1.13;0.88;;;;;;;2.87;38.71;98513.94;4890059;29;20116;-80
2022/03/27 09:36:43;;;;;;;4.30;0.95;;;;;;;2.33;38.34;98463.28;4866695;29;20048;-80
2022/03/27 09:39:20;;;;;;;3.25;1.08;;;;;;;2.17;38.04;98516.31;4866693;29;20048;-82
2022/03/27 09:41:54;;;;;;;4.60;1.02;;;;;;;1.73;38.80;98489.56;4905780;29;20053;-81
2022/03/27 09:44:29;;;;;;;4.95;0.63;;;;;;;2.00;38.84;98518.78;4877458;29;20056;-81
2022/03/27 09:47:04;;;;;;;3.25;1.15;;;;;;;1.90;38.73;98507.59;4891535;29;20068;-78
2022/03/27 09:49:31;;;;;;;4.88;1.00;;;;;;;2.96;39.75;98544.81;4878209;29;20079;-81
2022/03/27 09:52:08;;;;;;;3.05;0.65;;;;;;;4.93;39.14;98535.78;4879494;29;20049;-81
2022/03/27 09:54:51;;;;;;;0.77;0.55;;;;;;;6.12;37.43;98544.28;4894858;29;20068;-80
2022/03/27 09:57:41;;;;;;;3.38;1.15;;;;;;;5.90;35.58;98417.94;4897689;29;20037;-82
2022/03/27 10:00:36;;;;;;;3.25;0.80;;;;;;;7.28;34.69;98472.91;4858494;29;20105;-79
2022/03/27 10:03:11;;;;;;;2.60;1.15;;;;;;;7.43;33.26;98583.06;4840832;29;20217;-80
2022/03/27 10:05:38;;;;;;;2.13;1.33;;;;;;;6.26;33.52;98560.50;4888117;29;20143;-80
2022/03/27 10:08:12;;;;;;;3.05;1.10;;;;;;;4.95;33.86;98524.59;4890171;29;20053;-79
2022/03/27 10:10:38;;;;;;;1.65;0.90;;;;;;;3.86;35.71;98521.63;4877884;29;20051;-80
2022/03/27 10:13:06;;;;;;;4.25;0.68;;;;;;;3.57;36.70;98579.13;4881161;29;20057;-79
2022/03/27 10:15:35;;;;;;;6.78;3.78;;;;;;;3.16;37.67;98593.66;4880362;29;20521;-78
2022/03/27 10:18:21;;;;;;;1.13;0.80;;;;;;;2.90;38.76;98521.66;4890470;29;20040;-81
2022/03/27 10:20:54;;;;;;;2.40;0.90;;;;;;;3.82;38.77;98610.00;4893986;29;20353;-84
2022/03/27 10:23:24;;;;;;;3.55;0.80;;;;;;;3.96;38.54;98573.09;4885473;29;20044;-79
2022/03/27 10:26:05;;;;;;;3.03;0.90;;;;;;;4.43;37.92;98584.97;4871418;29;20052;-79
2022/03/27 10:28:33;;;;;;;3.42;0.98;;;;;;;4.46;37.03;98600.44;4868670;29;20072;-77
2022/03/27 10:30:59;;;;;;;1.80;0.80;;;;;;;4.25;37.28;98590.19;4860631;29;20112;-80
2022/03/27 10:33:28;;;;;;;4.50;1.70;;;;;;;4.76;37.14;98614.03;4872545;29;20079;-82
2022/03/27 10:36:39;;;;;;;1.95;0.95;;;;;;;4.70;36.54;98626.97;4893256;29;20045;-80
2022/03/27 10:39:40;;;;;;;1.40;0.93;;;;;;;3.84;37.02;98644.31;4884059;29;20072;-83
2022/03/27 10:42:15;;;;;;;4.38;1.95;;;;;;;3.32;38.46;98632.25;4894439;29;20059;-82
2022/03/27 10:45:30;;;;;;;3.72;0.95;;;;;;;2.59;39.69;98574.66;4895020;29;20052;-81
2022/03/27 10:48:18;;;;;;;2.65;0.70;;;;;;;2.86;40.68;98573.88;4885136;29;20061;-80
2022/03/27 10:50:46;;;;;;;2.67;0.98;;;;;;;3.36;39.83;98653.69;4886481;29;20047;-83
2022/03/27 10:53:29;;;;;;;1.42;0.85;;;;;;;2.30;39.93;98532.63;4888093;29;20056;-82
2022/03/27 10:55:58;;;;;;;1.65;0.88;;;;;;;2.18;40.77;98550.50;4851657;29;20421;-82
2022/03/27 10:58:37;;;;;;;1.10;0.80;;;;;;;2.86;40.24;98671.53;4889959;29;20044;-81
2022/03/27 11:01:34;;;;;;;1.08;0.82;;;;;;;2.63;41.23;98649.16;4878705;29;20670;-78
2022/03/27 11:04:28;;;;;;;2.30;1.00;;;;;;;2.46;41.12;98654.22;4897854;29;20159;-76
2022/03/27 11:07:46;;;;;;;1.48;0.90;;;;;;;2.12;41.31;98646.31;4887553;29;20064;-79
2022/03/27 11:10:40;;;;;;;9.75;4.65;;;;;;;1.98;41.64;98686.44;4889417;29;20049;-81
2022/03/27 11:13:31;;;;;;;2.70;1.02;;;;;;;1.66;43.18;98651.94;4884644;29;20052;-77
2022/03/27 11:16:16;;;;;;;1.70;0.80;;;;;;;1.67;43.35;98697.25;4855994;29;20086;-81
2022/03/27 11:18:49;;;;;;;2.22;0.80;;;;;;;1.04;42.99;98653.88;4864159;29;20067;-80
2022/03/27 11:21:47;;;;;;;1.75;1.02;;;;;;;1.15;44.70;98685.63;4865226;29;20041;-81
2022/03/27 11:24:44;;;;;;;3.63;0.90;;;;;;;0.46;44.81;98616.50;4874799;29;20049;-79
2022/03/27 11:27:50;;;;;;;3.47;0.95;;;;;;;1.23;45.23;98711.34;4869236;29;20497;-80
2022/03/27 11:30:17;;;;;;;1.58;0.98;;;;;;;1.24;45.39;98732.69;4902193;29;20052;-80
2022/03/27 11:33:45;;;;;;;5.63;1.27;;;;;;;1.29;45.73;98724.25;4889227;29;20519;-80
2022/03/27 11:37:10;;;;;;;2.35;0.70;;;;;;;0.99;45.85;98719.63;4872414;29;20044;-80
2022/03/27 11:39:37;;;;;;;1.25;0.90;;;;;;;-0.16;45.81;98590.06;4867541;29;20084;-79
2022/03/27 11:42:31;;;;;;;3.70;0.93;;;;;;;0.60;45.86;98739.59;4899813;29;20063;-80
2022/03/27 11:45:36;;;;;;;1.95;1.00;;;;;;;0.41;46.73;98761.47;4900248;29;20083;-82
2022/03/27 11:48:14;;;;;;;3.25;1.00;;;;;;;0.33;47.48;98740.88;4891218;29;20048;-80
2022/03/27 11:50:40;;;;;;;3.30;0.98;;;;;;;0.10;47.30;98727.75;4890893;29;20069;-80
2022/03/27 11:53:06;;;;;;;1.98;0.90;;;;;;;0.34;47.98;98734.94;4896074;29;20052;-78
2022/03/27 11:55:35;;;;;;;3.03;0.70;;;;;;;0.73;47.32;98767.06;4894955;29;20043;-78
2022/03/27 11:58:07;;;;;;;0.95;0.70;;;;;;;0.67;47.19;98755.88;4863598;29;20059;-78
2022/03/27 12:00:51;;;;;;;2.63;0.93;;;;;;;-0.53;46.76;98553.69;4880613;29;20112;-81
2022/03/27 12:03:22;;;;;;;1.02;0.70;;;;;;;0.60;46.52;98762.63;4893243;29;20067;-78
2022/03/27 12:05:51;;;;;;;3.75;1.00;;;;;;;0.74;46.64;98778.19;4894338;29;20511;-80
2022/03/27 12:08:19;;;;;;;1.85;0.88;;;;;;;0.66;45.84;98779.78;4895392;29;20044;-80
2022/03/27 12:10:56;;;;;;;1.50;0.75;;;;;;;0.41;45.64;98775.16;4869527;29;20492;-79
2022/03/27 12:13:22;;;;;;;5.32;0.80;;;;;;;0.31;45.63;98803.13;4883273;29;20056;-79
2022/03/27 12:15:54;;;;;;;1.98;0.88;;;;;;;0.02;45.98;98753.16;4852878;29;20050;-81